Time;durP1;ratioP1;P1;durP2;ratioP2;P2;SDS_P1;SDS_P2;PMS_P1;PMS_P2;Temp;Humidity;BMP_temperature;BMP_pressure;BME280_temperature;BME280_humidity;BME280_pressure;Samples;Min_cycle;Max_cycle;Signal;HPM_P1;HPM_P2
2020/12/08 00:02:11;;;;;;;29.73;19.60;;;;;;;1.87;100.00;97761.72;5073084;28;20281;-66
2020/12/08 00:04:39;;;;;;;29.98;19.20;;;;;;;1.79;100.00;97763.94;5073143;28;20672;-65
2020/12/08 00:07:05;;;;;;;29.70;19.23;;;;;;;1.81;100.00;97762.06;5072793;28;20193;-66
2020/12/08 00:09:31;;;;;;;29.40;19.08;;;;;;;1.84;100.00;97761.03;5073181;28;20275;-66
2020/12/08 00:12:00;;;;;;;29.48;18.77;;;;;;;1.85;100.00;97755.66;5072592;28;20649;-66
2020/12/08 00:14:29;;;;;;;35.17;21.15;;;;;;;1.91;100.00;97750.97;5072880;28;20291;-65
2020/12/08 00:16:56;;;;;;;26.92;18.52;;;;;;;1.86;100.00;97749.41;5073099;28;20287;-65
2020/12/08 00:19:22;;;;;;;30.52;19.90;;;;;;;1.90;100.00;97749.22;5072862;28;20220;-66
2020/12/08 00:21:49;;;;;;;26.30;17.35;;;;;;;1.96;100.00;97754.22;5072172;28;20220;-65
2020/12/08 00:24:16;;;;;;;26.25;18.25;;;;;;;1.97;100.00;97750.66;5072522;28;20212;-65
2020/12/08 00:26:45;;;;;;;27.50;19.10;;;;;;;2.00;100.00;97751.31;5074111;28;20216;-65
2020/12/08 00:29:12;;;;;;;25.45;17.95;;;;;;;2.01;100.00;97746.88;5090893;28;20200;-66
2020/12/08 00:31:38;;;;;;;28.27;19.30;;;;;;;2.00;99.99;97739.84;5092478;28;20200;-66
2020/12/08 00:34:05;;;;;;;26.10;18.20;;;;;;;1.92;99.91;97742.03;5082842;28;20217;-65
2020/12/08 00:36:31;;;;;;;28.50;19.20;;;;;;;1.86;100.00;97748.53;5071751;28;20200;-64
2020/12/08 00:39:02;;;;;;;28.60;18.25;;;;;;;1.96;100.00;97754.22;5072334;28;20180;-66
2020/12/08 00:41:28;;;;;;;26.42;17.85;;;;;;;2.00;100.00;97745.16;5072324;28;20224;-65
2020/12/08 00:43:54;;;;;;;26.80;17.65;;;;;;;1.99;100.00;97748.75;5072158;28;20216;-65
2020/12/08 00:46:21;;;;;;;26.55;18.33;;;;;;;1.93;99.99;97749.09;5091163;28;20192;-65
2020/12/08 00:48:50;;;;;;;27.77;18.48;;;;;;;1.91;100.00;97750.97;5092573;28;20180;-65
2020/12/08 00:51:17;;;;;;;28.83;19.38;;;;;;;1.97;100.00;97755.94;5092251;28;20287;-65
2020/12/08 00:53:43;;;;;;;27.15;19.90;;;;;;;2.03;100.00;97750.28;5092120;28;20194;-65
2020/12/08 00:56:11;;;;;;;24.73;17.98;;;;;;;2.05;99.44;97746.63;5089144;28;20686;-66
2020/12/08 00:58:40;;;;;;;29.77;18.80;;;;;;;2.11;98.97;97745.44;5071984;28;20264;-65
2020/12/08 01:01:12;;;;;;;26.83;17.95;;;;;;;2.05;98.42;97732.50;5072477;28;20742;-65
2020/12/08 01:03:39;;;;;;;27.67;18.35;;;;;;;1.91;98.89;97727.94;5071860;28;20325;-66
2020/12/08 01:06:11;;;;;;;22.67;16.55;;;;;;;1.94;99.05;97734.88;5072035;28;20607;-65
2020/12/08 01:08:52;;;;;;;23.08;16.90;;;;;;;1.97;99.07;97734.72;5072187;28;20204;-66
2020/12/08 01:11:21;;;;;;;22.77;16.92;;;;;;;1.94;99.09;97737.50;5069763;28;20631;-65
2020/12/08 01:13:49;;;;;;;22.52;16.55;;;;;;;1.97;99.02;97738.22;5072159;28;20592;-65
2020/12/08 01:16:18;;;;;;;23.45;16.20;;;;;;;1.98;98.86;97747.88;5072328;28;20193;-65
2020/12/08 01:18:44;;;;;;;24.17;16.55;;;;;;;2.04;98.34;97742.25;5071540;28;20189;-65
2020/12/08 01:21:14;;;;;;;24.15;16.50;;;;;;;2.05;98.09;97749.28;5071473;28;20287;-65
2020/12/08 01:23:41;;;;;;;23.52;16.15;;;;;;;1.97;97.89;97746.19;5072448;28;20221;-65
2020/12/08 01:26:07;;;;;;;25.20;16.88;;;;;;;1.98;97.97;97755.00;5072124;28;20921;-65
2020/12/08 01:28:35;;;;;;;26.15;16.50;;;;;;;1.97;98.21;97751.50;5090513;28;20202;-65
2020/12/08 01:31:01;;;;;;;22.83;16.70;;;;;;;1.98;97.72;97752.34;5092117;28;20180;-66
2020/12/08 01:33:27;;;;;;;19.70;15.80;;;;;;;1.90;97.85;97741.25;5092077;28;20657;-66
2020/12/08 01:35:53;;;;;;;21.05;15.60;;;;;;;1.82;98.04;97755.78;5074644;28;20201;-65
2020/12/08 01:38:21;;;;;;;23.35;16.83;;;;;;;1.82;98.15;97757.59;5071908;28;20254;-65
2020/12/08 01:40:52;;;;;;;21.02;15.82;;;;;;;1.86;98.36;97757.34;5071905;28;20715;-66
2020/12/08 01:43:19;;;;;;;21.15;15.77;;;;;;;1.89;98.16;97753.69;5071609;28;20277;-65
2020/12/08 01:45:46;;;;;;;20.17;15.07;;;;;;;1.91;97.95;97761.56;5087947;28;20606;-65
2020/12/08 01:48:13;;;;;;;24.08;15.30;;;;;;;1.87;97.44;97756.41;5080630;28;20199;-65
2020/12/08 01:50:39;;;;;;;22.23;16.20;;;;;;;1.84;97.89;97755.72;5072149;28;20262;-64
2020/12/08 01:53:06;;;;;;;22.23;15.90;;;;;;;1.86;98.07;97757.34;5071532;28;20243;-65
2020/12/08 01:55:33;;;;;;;23.27;16.48;;;;;;;1.83;97.98;97768.16;5071748;28;20211;-65
2020/12/08 01:58:00;;;;;;;20.80;15.63;;;;;;;1.86;97.82;97760.00;5071893;28;20291;-65
2020/12/08 02:00:26;;;;;;;22.50;15.30;;;;;;;1.82;97.76;97763.75;5071508;28;20240;-65
2020/12/08 02:02:55;;;;;;;23.00;16.00;;;;;;;1.80;97.90;97765.63;5071554;28;20212;-65
2020/12/08 02:05:21;;;;;;;23.13;17.30;;;;;;;1.77;97.63;97767.59;5071376;28;20313;-65
2020/12/08 02:07:47;;;;;;;22.15;16.00;;;;;;;1.85;97.69;97762.72;5071859;28;20243;-65
2020/12/08 02:10:13;;;;;;;24.50;16.13;;;;;;;1.84;97.26;97759.22;5071624;28;20189;-65
2020/12/08 02:12:39;;;;;;;21.48;14.32;;;;;;;1.84;96.99;97758.38;5071284;28;20203;-65
2020/12/08 02:15:06;;;;;;;20.52;14.60;;;;;;;1.91;96.98;97756.25;5071470;28;20282;-65
2020/12/08 02:17:32;;;;;;;24.25;16.85;;;;;;;1.94;96.81;97753.44;5081148;28;20192;-65
2020/12/08 02:19:59;;;;;;;22.35;16.52;;;;;;;2.05;96.46;97764.34;5091656;28;20195;-65
2020/12/08 02:22:25;;;;;;;19.23;14.75;;;;;;;2.02;96.14;97757.41;5091277;28;20251;-65
2020/12/08 02:24:51;;;;;;;20.98;14.60;;;;;;;2.07;95.69;97759.81;5091382;28;20184;-65
2020/12/08 02:27:17;;;;;;;26.40;15.25;;;;;;;2.04;95.09;97758.19;5091573;28;20595;-65
2020/12/08 02:29:45;;;;;;;19.27;13.52;;;;;;;2.06;94.84;97758.13;5091663;28;20583;-66
2020/12/08 02:32:11;;;;;;;21.10;13.90;;;;;;;2.11;94.63;97755.22;5089572;28;20314;-65
2020/12/08 02:34:38;;;;;;;23.42;14.35;;;;;;;2.20;93.69;97752.91;5088299;28;20282;-67
2020/12/08 02:37:05;;;;;;;18.85;12.95;;;;;;;2.32;92.98;97751.38;5095081;28;20243;-65
2020/12/08 02:39:31;;;;;;;16.38;12.30;;;;;;;2.17;93.19;97757.53;5094802;28;20188;-65
2020/12/08 02:41:58;;;;;;;18.13;12.60;;;;;;;2.13;93.27;97759.50;5094995;28;20258;-65
2020/12/08 02:44:24;;;;;;;20.90;13.25;;;;;;;2.11;93.52;97766.69;5094895;28;20646;-66
2020/12/08 02:46:51;;;;;;;18.02;12.52;;;;;;;2.05;93.92;97765.19;5092560;28;20631;-65
2020/12/08 02:49:18;;;;;;;20.60;13.20;;;;;;;2.10;93.77;97762.31;5074582;28;20200;-65
2020/12/08 02:51:45;;;;;;;22.80;13.93;;;;;;;2.06;93.73;97755.47;5074664;28;20613;-65
2020/12/08 02:54:12;;;;;;;21.63;15.27;;;;;;;2.12;93.90;97756.91;5074527;28;20316;-65
2020/12/08 02:56:38;;;;;;;20.02;13.82;;;;;;;2.04;94.16;97757.34;5074544;28;20189;-64
2020/12/08 02:59:04;;;;;;;23.98;15.40;;;;;;;2.15;94.12;97756.75;5074242;28;20228;-65
2020/12/08 03:01:31;;;;;;;22.05;14.73;;;;;;;2.06;93.78;97766.94;5073949;28;20204;-65
2020/12/08 03:03:57;;;;;;;18.40;13.38;;;;;;;2.11;93.96;97764.03;5074344;28;20712;-66
2020/12/08 03:06:23;;;;;;;18.08;14.32;;;;;;;2.10;94.07;97762.31;5074113;28;20285;-66
2020/12/08 03:08:49;;;;;;;20.33;14.73;;;;;;;2.10;94.22;97762.31;5074410;28;20185;-66
2020/12/08 03:11:16;;;;;;;22.83;14.65;;;;;;;2.10;93.97;97754.34;5083407;28;20192;-65
2020/12/08 03:13:43;;;;;;;21.70;15.10;;;;;;;2.14;94.29;97755.91;5094504;28;20269;-64
2020/12/08 03:16:09;;;;;;;23.65;15.18;;;;;;;2.08;94.13;97757.09;5094431;28;20535;-66
2020/12/08 03:18:35;;;;;;;23.00;14.23;;;;;;;2.11;94.05;97753.41;5093913;28;20235;-65
2020/12/08 03:21:01;;;;;;;20.75;13.50;;;;;;;2.08;94.51;97759.75;5094147;28;20173;-65
2020/12/08 03:23:27;;;;;;;18.75;13.13;;;;;;;2.18;94.52;97749.47;5093795;28;20299;-65
2020/12/08 03:25:54;;;;;;;21.27;13.57;;;;;;;2.18;93.99;97748.63;5094232;28;20207;-65
2020/12/08 03:28:21;;;;;;;20.65;15.20;;;;;;;2.20;94.23;97750.25;5094031;28;20188;-65
2020/12/08 03:30:47;;;;;;;21.33;14.25;;;;;;;2.24;94.22;97749.16;5093732;28;20287;-65
2020/12/08 03:33:13;;;;;;;23.08;14.68;;;;;;;2.25;93.84;97736.75;5074628;28;20201;-65
2020/12/08 03:35:40;;;;;;;21.20;14.70;;;;;;;2.29;93.81;97739.16;5073975;28;20283;-65
2020/12/08 03:38:06;;;;;;;18.50;13.57;;;;;;;2.26;93.54;97741.97;5073763;28;20192;-65
2020/12/08 03:40:32;;;;;;;20.52;14.55;;;;;;;2.32;93.95;97742.56;5073553;28;20231;-65
2020/12/08 03:42:58;;;;;;;19.52;13.63;;;;;;;2.46;93.64;97742.66;5073337;28;20295;-66
2020/12/08 03:45:25;;;;;;;18.85;13.25;;;;;;;2.52;92.70;97742.34;5073586;28;20286;-64
2020/12/08 03:47:52;;;;;;;24.42;14.75;;;;;;;2.60;92.45;97736.59;5073418;28;20195;-64
2020/12/08 03:50:18;;;;;;;21.98;14.10;;;;;;;2.63;91.69;97739.94;5073251;28;20277;-66
2020/12/08 03:52:44;;;;;;;19.15;13.98;;;;;;;2.69;91.00;97736.06;5072947;28;20236;-66
2020/12/08 03:55:10;;;;;;;19.92;13.27;;;;;;;2.66;90.95;97733.59;5073415;28;20204;-65
2020/12/08 03:57:36;;;;;;;22.38;13.70;;;;;;;2.70;90.63;97738.66;5073091;28;20199;-65
2020/12/08 04:00:05;;;;;;;20.10;13.68;;;;;;;2.64;90.62;97741.66;5072712;28;20233;-65
2020/12/08 04:02:32;;;;;;;18.33;12.68;;;;;;;2.84;90.21;97737.88;5073048;28;20220;-65
2020/12/08 04:04:58;;;;;;;16.67;12.60;;;;;;;2.91;89.65;97738.38;5073178;28;20674;-66
2020/12/08 04:07:24;;;;;;;17.20;12.73;;;;;;;2.77;89.56;97747.16;5072745;28;20181;-64
2020/12/08 04:09:50;;;;;;;23.83;14.30;;;;;;;2.99;88.66;97737.97;5072988;28;20250;-65
2020/12/08 04:12:17;;;;;;;18.58;12.65;;;;;;;2.93;88.32;97726.72;5072653;28;20191;-66
2020/12/08 04:14:44;;;;;;;22.40;13.48;;;;;;;2.77;88.98;97739.16;5072912;28;20654;-65
2020/12/08 04:17:10;;;;;;;23.23;14.85;;;;;;;2.66;89.75;97745.09;5072746;28;20188;-65
2020/12/08 04:19:38;;;;;;;19.65;13.90;;;;;;;2.76;90.14;97747.22;5072445;28;20210;-65
2020/12/08 04:22:04;;;;;;;21.45;13.98;;;;;;;2.73;89.71;97740.28;5072710;28;20655;-65
2020/12/08 04:24:30;;;;;;;19.02;13.00;;;;;;;2.80;89.76;97746.13;5072354;28;20369;-65
2020/12/08 04:26:56;;;;;;;21.15;14.07;;;;;;;2.69;89.81;97744.94;5072831;28;20201;-65
2020/12/08 04:29:23;;;;;;;21.83;14.35;;;;;;;2.61;90.41;97741.81;5072870;28;20271;-65
2020/12/08 04:31:50;;;;;;;22.42;14.60;;;;;;;2.63;90.41;97747.91;5072408;28;20626;-65
2020/12/08 04:34:16;;;;;;;22.33;13.50;;;;;;;2.56;91.28;97751.00;5082354;28;20542;-65
2020/12/08 04:36:43;;;;;;;20.40;14.40;;;;;;;2.66;91.30;97754.84;5092972;28;20267;-66
2020/12/08 04:39:09;;;;;;;22.67;15.68;;;;;;;2.66;90.90;97758.38;5092562;28;20206;-65
2020/12/08 04:41:36;;;;;;;20.33;14.00;;;;;;;2.63;91.25;97755.03;5092745;28;20597;-65
2020/12/08 04:44:04;;;;;;;20.50;13.02;;;;;;;2.62;91.20;97748.88;5092818;28;20695;-64
2020/12/08 04:46:31;;;;;;;19.38;12.98;;;;;;;2.78;91.01;97751.53;5092317;28;20200;-65
2020/12/08 04:48:57;;;;;;;26.50;14.68;;;;;;;2.91;89.92;97746.38;5092229;28;20184;-65
2020/12/08 04:51:23;;;;;;;20.02;13.07;;;;;;;2.89;89.95;97737.63;5092385;28;20271;-65
2020/12/08 04:53:52;;;;;;;17.88;13.65;;;;;;;2.79;89.80;97744.41;5091961;28;20200;-65
2020/12/08 04:56:18;;;;;;;21.40;14.23;;;;;;;2.84;90.08;97737.03;5092197;28;20220;-64
2020/12/08 04:58:44;;;;;;;21.63;14.63;;;;;;;2.84;90.61;97743.19;5092604;28;20320;-65
2020/12/08 05:01:23;;;;;;;19.02;14.05;;;;;;;2.98;91.34;97744.22;5082676;28;20189;-65
2020/12/08 05:03:56;;;;;;;19.27;13.55;;;;;;;3.02;91.39;97748.41;5072018;28;20208;-65
2020/12/08 05:06:22;;;;;;;21.02;13.85;;;;;;;3.12;90.46;97747.81;5072437;28;20187;-65
2020/12/08 05:09:00;;;;;;;19.42;12.75;;;;;;;3.03;90.37;97751.00;5071739;28;20291;-66
2020/12/08 05:11:28;;;;;;;19.50;13.02;;;;;;;3.06;90.28;97742.84;5063358;28;20685;-66
2020/12/08 05:13:58;;;;;;;20.02;14.98;;;;;;;2.94;90.99;97743.56;5052150;28;20203;-66
2020/12/08 05:16:24;;;;;;;20.40;14.50;;;;;;;2.96;91.37;97746.94;5051739;28;20208;-67
2020/12/08 05:18:50;;;;;;;22.88;14.50;;;;;;;2.98;91.35;97739.75;5051672;28;20212;-66
2020/12/08 05:21:16;;;;;;;22.15;19.10;;;;;;;3.08;90.87;97742.75;5051661;28;20205;-66
2020/12/08 05:23:44;;;;;;;19.38;13.50;;;;;;;2.96;91.57;97740.78;5051824;28;20217;-67
2020/12/08 05:26:12;;;;;;;20.25;14.00;;;;;;;2.88;92.40;97747.41;5051112;28;20190;-66
2020/12/08 05:28:39;;;;;;;23.30;15.65;;;;;;;2.85;93.04;97744.94;5055111;28;20283;-65
2020/12/08 05:31:05;;;;;;;22.35;14.77;;;;;;;2.76;92.47;97744.56;5082982;28;20224;-65
2020/12/08 05:33:32;;;;;;;20.77;14.10;;;;;;;2.78;92.53;97748.88;5073255;28;20234;-68
2020/12/08 05:35:59;;;;;;;21.58;13.52;;;;;;;2.80;92.40;97740.78;5083024;28;20280;-65
2020/12/08 05:38:31;;;;;;;19.45;13.35;;;;;;;2.83;92.43;97743.31;5071869;28;20606;-66
2020/12/08 05:41:02;;;;;;;22.08;13.05;;;;;;;2.86;92.96;97737.81;5071516;28;20185;-66
2020/12/08 05:43:35;;;;;;;23.92;14.35;;;;;;;2.78;93.57;97743.56;5071486;28;20296;-66
2020/12/08 05:46:03;;;;;;;21.42;15.20;;;;;;;2.75;94.09;97750.84;5071847;28;20259;-65
2020/12/08 05:48:31;;;;;;;24.17;15.25;;;;;;;2.87;94.50;97747.47;5090994;28;20598;-65
2020/12/08 05:51:00;;;;;;;23.60;16.00;;;;;;;2.96;93.99;97752.28;5091500;28;20199;-66
2020/12/08 05:53:26;;;;;;;21.23;14.43;;;;;;;2.94;93.17;97759.50;5088704;28;20284;-66
2020/12/08 05:56:03;;;;;;;24.67;16.45;;;;;;;2.99;94.05;97761.91;5082438;28;20220;-66
2020/12/08 05:58:30;;;;;;;24.48;16.15;;;;;;;2.91;94.57;97755.19;5071446;28;20633;-66
2020/12/08 06:01:06;;;;;;;22.50;14.65;;;;;;;2.83;93.55;97756.59;5071178;28;20617;-66
2020/12/08 06:03:34;;;;;;;21.73;13.80;;;;;;;2.90;93.49;97760.63;5071179;28;20299;-66
2020/12/08 06:06:07;;;;;;;21.85;14.63;;;;;;;2.87;93.26;97763.44;5074893;28;20208;-66
2020/12/08 06:08:42;;;;;;;20.35;13.13;;;;;;;2.83;94.24;97752.13;5074769;28;20184;-65
2020/12/08 06:11:09;;;;;;;20.08;13.48;;;;;;;2.80;93.58;97746.97;5075397;28;20227;-64
2020/12/08 06:13:36;;;;;;;24.20;13.77;;;;;;;2.83;93.55;97756.59;5074993;28;20220;-65
2020/12/08 06:16:14;;;;;;;22.25;14.48;;;;;;;2.78;94.32;97743.56;5074750;28;20591;-66
2020/12/08 06:18:40;;;;;;;19.77;12.50;;;;;;;2.82;94.33;97749.53;5074909;28;20192;-65
2020/12/08 06:21:18;;;;;;;24.77;16.65;;;;;;;2.89;93.55;97751.78;5074563;28;20208;-66
2020/12/08 06:23:45;;;;;;;20.77;13.95;;;;;;;3.03;92.88;97758.97;5074023;28;20311;-66
2020/12/08 06:26:11;;;;;;;23.33;14.55;;;;;;;3.02;92.41;97757.25;5074062;28;20227;-66
2020/12/08 06:28:38;;;;;;;23.25;14.25;;;;;;;3.03;92.77;97761.63;5074831;28;20271;-65
2020/12/08 06:31:05;;;;;;;22.00;13.68;;;;;;;3.23;93.06;97762.28;5074337;28;20191;-66
2020/12/08 06:33:32;;;;;;;22.10;14.30;;;;;;;3.02;91.89;97767.03;5073804;28;20199;-65
2020/12/08 06:36:00;;;;;;;24.50;17.17;;;;;;;3.07;93.33;97767.63;5073410;28;20207;-65
2020/12/08 06:38:26;;;;;;;23.38;14.77;;;;;;;3.21;92.84;97766.81;5073817;28;20199;-66
2020/12/08 06:40:54;;;;;;;27.05;15.85;;;;;;;3.17;92.15;97775.94;5074150;28;20196;-67
2020/12/08 06:43:21;;;;;;;26.45;16.10;;;;;;;3.29;92.55;97769.91;5074038;28;20205;-66
2020/12/08 06:45:49;;;;;;;24.85;16.08;;;;;;;3.24;92.85;97779.97;5074181;28;20201;-66
2020/12/08 06:48:17;;;;;;;25.67;16.80;;;;;;;3.36;92.81;97771.28;5073852;28;20280;-66
2020/12/08 06:50:43;;;;;;;22.85;14.48;;;;;;;3.31;92.36;97774.19;5074270;28;20269;-66
2020/12/08 06:53:10;;;;;;;26.60;15.68;;;;;;;3.34;92.49;97771.34;5074237;28;20189;-66
2020/12/08 06:55:44;;;;;;;24.13;15.77;;;;;;;3.27;92.35;97771.81;5073481;28;20208;-65
2020/12/08 06:58:10;;;;;;;26.30;17.25;;;;;;;3.27;93.04;97777.97;5073497;28;20797;-66
2020/12/08 07:00:36;;;;;;;24.65;15.82;;;;;;;3.34;92.81;97783.78;5073591;28;20209;-65
2020/12/08 07:03:05;;;;;;;34.83;20.65;;;;;;;3.29;93.20;97783.22;5073695;28;20220;-66
2020/12/08 07:05:33;;;;;;;26.48;16.77;;;;;;;3.16;93.45;97785.72;5073972;28;20272;-65
2020/12/08 07:08:01;;;;;;;33.58;24.90;;;;;;;3.16;94.24;97792.84;5073321;28;20188;-66
2020/12/08 07:10:27;;;;;;;25.55;16.20;;;;;;;3.10;93.83;97788.75;5074026;28;20219;-66
2020/12/08 07:12:54;;;;;;;29.55;17.50;;;;;;;3.25;94.90;97789.66;5073793;28;20201;-66
2020/12/08 07:15:23;;;;;;;29.08;17.83;;;;;;;3.22;94.11;97789.84;5073029;28;20204;-66
2020/12/08 07:17:56;;;;;;;25.52;16.80;;;;;;;3.26;93.67;97791.38;5073041;28;20232;-65
2020/12/08 07:20:24;;;;;;;25.95;16.25;;;;;;;3.40;93.92;97798.56;5073490;28;20221;-66
2020/12/08 07:22:52;;;;;;;26.80;15.57;;;;;;;3.42;93.88;97800.19;5073542;28;20579;-66
2020/12/08 07:25:19;;;;;;;27.02;15.68;;;;;;;3.46;92.96;97798.19;5078348;28;20576;-66
2020/12/08 07:27:48;;;;;;;24.90;15.18;;;;;;;3.44;93.28;97805.44;5090277;28;20613;-66
2020/12/08 07:30:17;;;;;;;26.00;15.70;;;;;;;3.36;92.53;97805.00;5079707;28;20207;-66
2020/12/08 07:32:43;;;;;;;25.80;15.48;;;;;;;3.27;92.81;97807.22;5075042;28;20211;-67
2020/12/08 07:35:20;;;;;;;23.80;15.68;;;;;;;3.50;93.32;97810.38;5073171;28;20204;-66
2020/12/08 07:37:47;;;;;;;28.35;17.52;;;;;;;3.57;92.32;97816.19;5073060;28;20262;-65
2020/12/08 07:40:15;;;;;;;24.98;15.95;;;;;;;3.42;93.43;97813.50;5073385;28;20214;-65
2020/12/08 07:42:47;;;;;;;29.27;15.32;;;;;;;3.33;93.74;97814.88;5072944;28;20207;-66
2020/12/08 07:45:14;;;;;;;28.33;16.85;;;;;;;3.38;92.93;97822.59;5073475;28;20227;-67
2020/12/08 07:47:40;;;;;;;28.27;15.98;;;;;;;3.39;93.19;97818.97;5080030;28;20195;-65
2020/12/08 07:50:07;;;;;;;26.73;17.10;;;;;;;3.42;93.63;97816.16;5092987;28;20553;-66
2020/12/08 07:52:33;;;;;;;27.38;16.35;;;;;;;3.54;92.47;97815.44;5093158;28;20200;-66
2020/12/08 07:55:00;;;;;;;25.80;15.52;;;;;;;3.57;91.58;97821.53;5078025;28;20220;-66
2020/12/08 07:57:27;;;;;;;25.33;16.67;;;;;;;3.42;91.84;97824.13;5073157;28;20213;-66
2020/12/08 07:59:53;;;;;;;37.08;24.08;;;;;;;3.33;91.89;97824.66;5074922;28;20234;-66
2020/12/08 08:02:19;;;;;;;25.52;17.27;;;;;;;3.31;93.80;97826.53;5072894;28;20209;-65
2020/12/08 08:04:46;;;;;;;29.90;17.63;;;;;;;3.22;93.31;97827.06;5073620;28;20657;-66
2020/12/08 08:07:12;;;;;;;26.77;16.20;;;;;;;3.18;93.90;97826.38;5083680;28;20185;-67
2020/12/08 08:09:39;;;;;;;24.40;17.00;;;;;;;3.12;93.20;97827.59;5072786;28;20296;-66
2020/12/08 08:12:06;;;;;;;26.85;16.92;;;;;;;3.13;94.30;97833.75;5072242;28;20239;-66
2020/12/08 08:14:32;;;;;;;24.52;15.88;;;;;;;3.29;95.06;97825.78;5072160;28;20615;-67
2020/12/08 08:16:59;;;;;;;34.55;17.23;;;;;;;3.38;94.62;97825.25;5072842;28;20209;-66
2020/12/08 08:19:25;;;;;;;25.15;16.08;;;;;;;3.36;94.59;97827.13;5072291;28;20185;-66
2020/12/08 08:21:51;;;;;;;28.30;17.10;;;;;;;3.28;94.11;97830.25;5072598;28;20258;-66
2020/12/08 08:24:17;;;;;;;26.00;16.55;;;;;;;3.24;94.40;97828.69;5072039;28;20226;-66
2020/12/08 08:26:44;;;;;;;28.90;17.20;;;;;;;3.28;94.70;97832.06;5072398;28;20225;-65
2020/12/08 08:29:11;;;;;;;28.55;18.33;;;;;;;3.41;94.45;97834.84;5072393;28;20219;-66
2020/12/08 08:31:37;;;;;;;27.95;16.33;;;;;;;3.26;93.57;97829.47;5071541;28;20199;-66
2020/12/08 08:34:04;;;;;;;29.73;18.15;;;;;;;3.40;94.25;97825.16;5078174;28;20195;-66
2020/12/08 08:36:30;;;;;;;30.98;18.48;;;;;;;3.43;94.52;97820.50;5092371;28;20204;-66
2020/12/08 08:38:57;;;;;;;29.35;17.15;;;;;;;3.42;94.28;97821.47;5092416;28;20611;-66
2020/12/08 08:41:23;;;;;;;29.05;17.20;;;;;;;3.35;93.74;97820.13;5090790;28;20204;-65
2020/12/08 08:43:49;;;;;;;28.10;16.30;;;;;;;3.33;94.02;97814.88;5092156;28;20231;-66
2020/12/08 08:46:17;;;;;;;26.38;16.15;;;;;;;3.36;93.94;97813.84;5091904;28;20192;-66
2020/12/08 08:48:43;;;;;;;29.45;16.85;;;;;;;3.48;93.92;97826.44;5080876;28;20199;-66
2020/12/08 08:51:09;;;;;;;27.98;16.88;;;;;;;3.41;92.74;97826.88;5072117;28;20196;-66
2020/12/08 08:53:37;;;;;;;30.08;19.05;;;;;;;3.41;93.24;97827.72;5075361;28;20222;-66
2020/12/08 08:56:03;;;;;;;29.25;17.50;;;;;;;3.41;93.17;97833.03;5072112;28;20204;-66
2020/12/08 08:58:29;;;;;;;34.38;19.40;;;;;;;3.41;93.17;97826.88;5078573;28;20590;-65
2020/12/08 09:00:57;;;;;;;29.10;16.60;;;;;;;3.60;92.46;97837.34;5092275;28;20209;-66
2020/12/08 09:03:24;;;;;;;33.88;18.77;;;;;;;3.70;93.25;97831.34;5084288;28;20642;-66
2020/12/08 09:05:51;;;;;;;28.38;19.27;;;;;;;3.75;93.14;97831.97;5071742;28;20207;-66
2020/12/08 09:08:17;;;;;;;27.85;17.27;;;;;;;3.87;90.76;97840.19;5074310;28;20201;-67
2020/12/08 09:10:44;;;;;;;36.70;18.17;;;;;;;4.04;90.16;97852.47;5078826;28;20189;-68
2020/12/08 09:13:10;;;;;;;28.60;16.35;;;;;;;3.89;90.26;97852.44;5090725;28;20200;-68
2020/12/08 09:15:36;;;;;;;28.20;17.50;;;;;;;4.11;89.30;97860.00;5091886;28;20296;-67
2020/12/08 09:18:03;;;;;;;32.40;17.95;;;;;;;4.07;88.88;97861.16;5090027;28;20535;-67
2020/12/08 09:20:30;;;;;;;27.17;17.65;;;;;;;4.16;88.47;97860.63;5089610;28;20634;-67
2020/12/08 09:22:57;;;;;;;25.50;15.68;;;;;;;4.23;87.62;97860.22;5076767;28;20280;-68
2020/12/08 09:25:27;;;;;;;27.60;15.95;;;;;;;4.18;87.47;97865.81;5071330;28;20608;-67
2020/12/08 09:27:53;;;;;;;27.50;19.33;;;;;;;4.30;87.32;97864.25;5071208;28;20197;-67
2020/12/08 09:30:20;;;;;;;27.48;17.70;;;;;;;4.56;86.70;97868.00;5071031;28;20207;-66
2020/12/08 09:32:46;;;;;;;29.92;18.50;;;;;;;4.47;86.00;97871.22;5071075;28;20210;-67
2020/12/08 09:35:12;;;;;;;27.65;17.58;;;;;;;4.49;86.22;97867.50;5071600;28;20266;-66
2020/12/08 09:37:40;;;;;;;27.52;17.00;;;;;;;4.63;84.75;97874.66;5071412;28;20215;-66
2020/12/08 09:40:06;;;;;;;28.75;17.27;;;;;;;4.70;84.76;97878.66;5072950;28;20228;-65
2020/12/08 09:42:33;;;;;;;30.17;18.13;;;;;;;4.58;86.69;97876.75;5084936;28;20225;-66
2020/12/08 09:44:59;;;;;;;26.48;15.55;;;;;;;4.48;86.88;97873.78;5075126;28;20205;-66
2020/12/08 09:47:26;;;;;;;30.60;18.75;;;;;;;4.33;87.85;97870.25;5075187;28;20229;-66
2020/12/08 09:49:53;;;;;;;32.47;18.25;;;;;;;4.25;88.06;97875.19;5075217;28;20206;-67
2020/12/08 09:52:19;;;;;;;29.67;17.80;;;;;;;4.03;88.69;97866.75;5075050;28;20210;-67
2020/12/08 09:54:46;;;;;;;33.75;18.92;;;;;;;4.04;88.76;97864.00;5088198;28;20279;-66
2020/12/08 09:57:13;;;;;;;33.25;20.40;;;;;;;4.10;90.44;97862.78;5089030;28;20657;-69
2020/12/08 09:59:39;;;;;;;35.47;19.38;;;;;;;4.23;89.48;97869.09;5078656;28;20245;-66
2020/12/08 10:02:06;;;;;;;33.28;17.80;;;;;;;4.38;89.72;97860.16;5074772;28;20201;-66
2020/12/08 10:04:32;;;;;;;30.73;18.23;;;;;;;4.45;87.63;97865.13;5074793;28;20216;-66
2020/12/08 10:06:58;;;;;;;32.05;19.17;;;;;;;4.56;89.98;97876.84;5075278;28;20200;-66
2020/12/08 10:09:25;;;;;;;38.28;20.17;;;;;;;4.69;90.09;97876.09;5074176;28;20201;-66
2020/12/08 10:11:52;;;;;;;31.88;18.52;;;;;;;5.05;89.59;97872.94;5074728;28;20211;-66
2020/12/08 10:14:19;;;;;;;32.65;17.65;;;;;;;5.17;88.39;97888.16;5082642;28;20218;-65
2020/12/08 10:16:45;;;;;;;31.23;19.05;;;;;;;5.12;85.89;97874.25;5074889;28;20561;-66
2020/12/08 10:19:12;;;;;;;34.67;18.65;;;;;;;5.19;86.97;97891.59;5075819;28;20600;-65
2020/12/08 10:21:40;;;;;;;35.30;20.65;;;;;;;5.23;88.68;97892.25;5078495;28;20201;-66
2020/12/08 10:24:06;;;;;;;37.35;20.75;;;;;;;5.12;85.58;97887.59;5074826;28;20238;-66
2020/12/08 10:26:32;;;;;;;35.20;20.63;;;;;;;5.08;88.32;97886.06;5074743;28;20211;-66
2020/12/08 10:29:02;;;;;;;29.55;18.70;;;;;;;4.94;87.32;97878.94;5074697;28;20192;-66
2020/12/08 10:31:31;;;;;;;34.72;21.05;;;;;;;5.13;86.67;97880.44;5074367;28;20234;-65
2020/12/08 10:33:57;;;;;;;29.52;17.40;;;;;;;4.92;85.57;97888.00;5075984;28;20651;-67
2020/12/08 10:36:23;;;;;;;31.20;19.15;;;;;;;4.95;88.57;97888.69;5075022;28;20232;-67
2020/12/08 10:38:49;;;;;;;38.35;21.63;;;;;;;4.89;90.94;97888.19;5082489;28;20190;-65
2020/12/08 10:41:20;;;;;;;33.08;20.35;;;;;;;4.76;87.73;97894.28;5094978;28;20222;-67
2020/12/08 10:43:47;;;;;;;34.10;18.65;;;;;;;4.75;87.35;97903.25;5094497;28;20678;-66
2020/12/08 10:46:14;;;;;;;34.15;19.20;;;;;;;4.74;86.21;97895.31;5094469;28;20207;-66
2020/12/08 10:48:40;;;;;;;32.70;19.20;;;;;;;4.76;86.97;97896.09;5083932;28;20275;-66
2020/12/08 10:51:06;;;;;;;34.08;19.95;;;;;;;4.76;87.71;97904.94;5070052;28;20206;-66
2020/12/08 10:53:32;;;;;;;32.83;19.55;;;;;;;4.64;87.21;97889.72;5078422;28;20657;-66
2020/12/08 10:55:59;;;;;;;39.58;21.00;;;;;;;4.69;87.94;97892.94;5094342;28;20255;-66
2020/12/08 10:58:25;;;;;;;32.40;20.42;;;;;;;4.63;88.19;97881.78;5093692;28;20233;-66
2020/12/08 11:00:51;;;;;;;34.30;20.20;;;;;;;4.66;88.70;97885.16;5094367;28;20687;-65
2020/12/08 11:03:18;;;;;;;34.13;20.00;;;;;;;4.68;88.97;97885.91;5094045;28;20337;-66
2020/12/08 11:05:44;;;;;;;36.80;21.35;;;;;;;4.80;88.42;97895.81;5077095;28;20208;-66
2020/12/08 11:08:11;;;;;;;37.05;21.67;;;;;;;4.68;88.30;97895.69;5087764;28;20901;-66
2020/12/08 11:10:38;;;;;;;31.95;18.80;;;;;;;4.71;87.75;97890.19;5081938;28;20207;-66
2020/12/08 11:13:04;;;;;;;31.85;19.23;;;;;;;4.77;86.39;97898.66;5073826;28;20325;-68
2020/12/08 11:15:31;;;;;;;33.05;20.80;;;;;;;4.76;87.27;97894.28;5073344;28;20596;-67
2020/12/08 11:17:57;;;;;;;30.02;17.88;;;;;;;4.90;86.56;97897.91;5073110;28;20210;-67
2020/12/08 11:20:25;;;;;;;32.75;19.55;;;;;;;4.97;86.65;97897.41;5078619;28;20237;-67
2020/12/08 11:22:51;;;;;;;29.02;18.55;;;;;;;4.98;86.17;97900.97;5078727;28;20261;-66
2020/12/08 11:25:18;;;;;;;33.10;19.17;;;;;;;4.91;85.84;97894.28;5090597;28;20201;-67